Waterford, Wisconsin
Current Conditions -  °F | °C
As of 6:55 AM on Thursday 27 Nov 2014 (Local Time) from KBUU Reporting Station
Scattered Clouds Scattered Clouds  
Wind Chill:   Ceiling: Unl
Heat Index: 20°   Visibility: 10mi
Dew Point: 18°   Wind: 10mph
Humidity: 89%   Direction: 320°NW
Pressure: 30.27"   Gusts: NA
Location:  42.76°N, 88.21°W
Report Text: KBUU 271255Z AUTO 32009KT 10SM SCT041 SCT080 SCT100 M06/M08 A3027 RMK AO2 T10651080
Loading
Personal Weather Stations






























Interactive Weather Map New forecast layout! Learn more

10-Day Weather Forecast

Advertisements
Track Severe Weather on mobile